Time;durP1;ratioP1;P1;durP2;ratioP2;P2;SDS_P1;SDS_P2;PMS_P1;PMS_P2;Temp;Humidity;BMP_temperature;BMP_pressure;BME280_temperature;BME280_humidity;BME280_pressure;Samples;Min_cycle;Max_cycle;Signal;HPM_P1;HPM_P2
2021/04/11 00:01:39;;;;;;;;;;;;;;;4.57;52.90;101747.65;1685263;85;20623;-63
2021/04/11 00:04:11;;;;;;;;;;;;;;;4.58;52.94;101748.05;1714986;84;20235;-63
2021/04/11 00:06:44;;;;;;;;;;;;;;;4.58;52.92;101729.90;1683277;85;20171;-64
2021/04/11 00:09:15;;;;;;;;;;;;;;;4.59;52.79;101728.13;1714149;84;20609;-64
2021/04/11 00:11:47;;;;;;;;;;;;;;;4.57;52.73;101726.05;1657833;85;20261;-64
2021/04/11 00:14:20;;;;;;;;;;;;;;;4.54;52.79;101725.72;1715028;84;20168;-63
2021/04/11 00:16:53;;;;;;;;;;;;;;;4.54;52.77;101715.34;1713588;83;20171;-62
2021/04/11 00:19:26;;;;;;;;;;;;;;;4.52;52.75;101715.02;1683404;85;20195;-62
2021/04/11 00:21:58;;;;;;;;;;;;;;;4.50;52.89;101717.69;1715284;84;20271;-63
2021/04/11 00:24:31;;;;;;;;;;;;;;;4.50;52.98;101715.09;1684999;85;20241;-63
2021/04/11 00:27:03;;;;;;;;;;;;;;;4.50;53.01;101712.50;1715219;84;20597;-67
2021/04/11 00:29:35;;;;;;;;;;;;;;;4.51;53.02;101709.02;1684301;85;20233;-62
2021/04/11 00:32:08;;;;;;;;;;;;;;;4.50;53.21;101707.31;1715200;84;20256;-64
2021/04/11 00:34:40;;;;;;;;;;;;;;;4.53;53.20;101697.27;1685097;85;20631;-63
2021/04/11 00:37:13;;;;;;;;;;;;;;;4.55;53.22;101696.30;1714938;84;20223;-63
2021/04/11 00:39:45;;;;;;;;;;;;;;;4.58;53.19;101701.37;1684098;85;20273;-63
2021/04/11 00:42:21;;;;;;;;;;;;;;;4.60;53.23;101718.16;1714917;84;20232;-64
2021/04/11 00:44:54;;;;;;;;;;;;;;;4.59;53.26;101716.45;1684932;85;20233;-64
2021/04/11 00:47:26;;;;;;;;;;;;;;;4.57;53.36;101724.31;1686786;84;20766;-64
2021/04/11 00:49:58;;;;;;;;;;;;;;;4.57;53.46;101732.09;1684166;85;20230;-64
2021/04/11 00:52:30;;;;;;;;;;;;;;;4.61;53.58;101737.53;1665486;84;20263;-65
2021/04/11 00:55:03;;;;;;;;;;;;;;;4.68;53.65;101743.34;1700727;84;20232;-63
2021/04/11 00:57:37;;;;;;;;;;;;;;;4.74;53.63;101733.55;1670380;86;20234;-63
2021/04/11 01:00:10;;;;;;;;;;;;;;;4.82;53.67;101733.68;1698699;84;20623;-64
2021/04/11 01:02:44;;;;;;;;;;;;;;;4.86;53.61;101725.70;1670403;86;20321;-64
2021/04/11 01:05:22;;;;;;;;;;;;;;;4.93;53.58;101731.02;1699775;84;20236;-64
2021/04/11 01:07:55;;;;;;;;;;;;;;;4.98;53.61;101732.13;1670513;86;20159;-63
2021/04/11 01:10:29;;;;;;;;;;;;;;;5.04;53.61;101727.98;1698716;84;20332;-64
2021/04/11 01:13:01;;;;;;;;;;;;;;;5.11;53.46;101726.34;1670525;86;20239;-63
2021/04/11 01:15:33;;;;;;;;;;;;;;;5.18;53.23;101715.26;1699398;84;20232;-64
2021/04/11 01:18:06;;;;;;;;;;;;;;;5.25;53.16;101717.98;1670300;86;20230;-63
2021/04/11 01:20:39;;;;;;;;;;;;;;;5.31;53.01;101726.78;1698402;84;20229;-64
2021/04/11 01:23:31;;;;;;;;;;;;;;;5.37;52.88;101729.13;1670673;86;20234;-64
2021/04/11 01:26:03;;;;;;;;;;;;;;;5.43;52.73;101730.14;1688953;85;20628;-61
2021/04/11 01:28:43;;;;;;;;;;;;;;;5.51;52.50;101729.80;1689524;85;20237;-63
2021/04/11 01:31:15;;;;;;;;;;;;;;;5.59;52.27;101718.15;1669338;86;20239;-63
2021/04/11 01:33:51;;;;;;;;;;;;;;;5.67;51.91;101712.16;1700120;84;20197;-62
2021/04/11 01:36:25;;;;;;;;;;;;;;;5.74;51.65;101705.77;1669489;86;20624;-62
2021/04/11 01:39:02;;;;;;;;;;;;;;;5.81;51.54;101704.58;1699967;84;20259;-64
2021/04/11 01:41:39;;;;;;;;;;;;;;;5.86;51.44;101701.80;1699238;84;20239;-66
2021/04/11 01:44:13;;;;;;;;;;;;;;;5.90;51.30;101691.18;1670429;86;20243;-62
2021/04/11 01:46:48;;;;;;;;;;;;;;;5.91;51.27;101677.28;1699121;84;20192;-66
2021/04/11 01:49:21;;;;;;;;;;;;;;;5.92;51.09;101660.76;1670232;86;20270;-64
2021/04/11 01:52:01;;;;;;;;;;;;;;;5.91;51.09;101660.39;1699043;84;20550;-64
2021/04/11 01:54:35;;;;;;;;;;;;;;;5.91;51.18;101656.49;1699563;84;20180;-64
2021/04/11 01:57:12;;;;;;;;;;;;;;;5.91;51.26;101659.09;1657221;84;20642;-63
2021/04/11 01:59:45;;;;;;;;;;;;;;;5.91;51.29;101656.95;1669995;86;20286;-63
2021/04/11 02:02:18;;;;;;;;;;;;;;;5.92;51.43;101661.24;1678881;84;20261;-63
2021/04/11 02:04:51;;;;;;;;;;;;;;;5.93;51.46;101667.66;1670387;86;20260;-63
2021/04/11 02:07:23;;;;;;;;;;;;;;;5.97;51.41;101670.97;1698644;84;20240;-63
2021/04/11 02:09:57;;;;;;;;;;;;;;;5.96;51.42;101680.52;1670091;86;20159;-64
2021/04/11 02:12:30;;;;;;;;;;;;;;;5.98;51.39;101687.78;1699120;84;20164;-63
2021/04/11 02:15:21;;;;;;;;;;;;;;;6.01;51.38;101696.74;1668933;86;20234;-63
2021/04/11 02:17:55;;;;;;;;;;;;;;;6.03;51.35;101696.20;1698623;84;20257;-63
2021/04/11 02:20:28;;;;;;;;;;;;;;;6.05;51.26;101701.33;1669841;86;20282;-63
2021/04/11 02:23:00;;;;;;;;;;;;;;;6.05;51.22;101704.77;1678788;84;20260;-63
2021/04/11 02:25:36;;;;;;;;;;;;;;;6.05;51.16;101707.38;1668986;86;20175;-62
2021/04/11 02:28:11;;;;;;;;;;;;;;;6.04;51.22;101720.45;1698456;84;20240;-62
2021/04/11 02:30:46;;;;;;;;;;;;;;;6.04;51.19;101725.66;1699552;84;20614;-62
2021/04/11 02:33:20;;;;;;;;;;;;;;;6.06;51.18;101728.56;1668789;86;20243;-62
2021/04/11 02:35:52;;;;;;;;;;;;;;;6.07;51.17;101735.44;1699798;84;20287;-64
2021/04/11 02:38:25;;;;;;;;;;;;;;;6.09;51.05;101735.35;1669110;86;20290;-63
2021/04/11 02:40:59;;;;;;;;;;;;;;;6.09;51.03;101741.85;1699459;84;20236;-64
2021/04/11 02:43:33;;;;;;;;;;;;;;;6.09;50.99;101741.40;1670082;86;20295;-64
2021/04/11 02:46:07;;;;;;;;;;;;;;;6.08;50.96;101751.88;1698253;84;20184;-64
2021/04/11 02:48:40;;;;;;;;;;;;;;;6.06;51.04;101762.37;1668905;86;20235;-64
2021/04/11 02:51:20;;;;;;;;;;;;;;;6.04;51.16;101777.65;1697093;84;20173;-64
2021/04/11 02:53:53;;;;;;;;;;;;;;;6.00;51.24;101775.63;1649412;86;20258;-63
2021/04/11 02:56:27;;;;;;;;;;;;;;;6.01;51.42;101781.23;1703964;84;20301;-62
2021/04/11 02:59:00;;;;;;;;;;;;;;;5.99;51.50;101779.61;1669094;85;20238;-63
2021/04/11 03:01:35;;;;;;;;;;;;;;;5.98;51.60;101793.51;1698832;84;20173;-64
2021/04/11 03:04:07;;;;;;;;;;;;;;;5.97;51.69;101791.84;1670244;86;20262;-65
2021/04/11 03:06:40;;;;;;;;;;;;;;;5.95;51.71;101785.39;1698491;84;20185;-63
2021/04/11 03:09:17;;;;;;;;;;;;;;;5.96;51.84;101784.94;1670187;86;20321;-62
2021/04/11 03:11:51;;;;;;;;;;;;;;;5.99;51.86;101792.13;1698925;84;20256;-63
2021/04/11 03:14:28;;;;;;;;;;;;;;;6.01;51.88;101781.68;1668916;86;20203;-63
2021/04/11 03:17:07;;;;;;;;;;;;;;;6.01;51.86;101792.92;1698373;84;20555;-63
2021/04/11 03:19:48;;;;;;;;;;;;;;;6.07;51.97;101786.58;1670501;86;20171;-63
2021/04/11 03:22:21;;;;;;;;;;;;;;;6.13;52.11;101782.42;1698608;84;20240;-62
2021/04/11 03:24:53;;;;;;;;;;;;;;;6.23;52.05;101778.94;1699975;84;20284;-63
2021/04/11 03:27:32;;;;;;;;;;;;;;;6.29;52.04;101782.08;1670388;86;20222;-63
2021/04/11 03:30:11;;;;;;;;;;;;;;;6.34;52.05;101783.17;1689459;85;20304;-64
2021/04/11 03:32:47;;;;;;;;;;;;;;;6.34;52.12;101786.62;1669317;86;20266;-64
2021/04/11 03:35:22;;;;;;;;;;;;;;;6.36;52.07;101791.73;1700183;84;20233;-64
2021/04/11 03:37:56;;;;;;;;;;;;;;;6.48;51.84;101793.31;1670188;86;20191;-64
2021/04/11 03:40:29;;;;;;;;;;;;;;;6.64;51.63;101786.90;1699757;84;20291;-64
2021/04/11 03:43:04;;;;;;;;;;;;;;;6.76;51.31;101792.36;1669187;86;20599;-64
2021/04/11 03:45:38;;;;;;;;;;;;;;;6.93;50.93;101795.89;1700085;84;20228;-65
2021/04/11 03:48:14;;;;;;;;;;;;;;;7.09;50.59;101799.00;1650838;86;20199;-65
2021/04/11 03:50:51;;;;;;;;;;;;;;;7.32;50.03;101812.16;1700349;84;20586;-66
2021/04/11 03:53:30;;;;;;;;;;;;;;;7.59;49.28;101812.52;1669907;86;20271;-65
2021/04/11 03:56:07;;;;;;;;;;;;;;;7.84;48.70;101808.98;1689604;85;20678;-64
2021/04/11 03:58:42;;;;;;;;;;;;;;;8.18;48.41;101804.97;1675680;85;20626;-65
2021/04/11 04:01:19;;;;;;;;;;;;;;;8.54;47.78;101809.52;1712951;84;20180;-65
2021/04/11 04:03:52;;;;;;;;;;;;;;;9.00;47.14;101802.98;1684562;85;20624;-65
2021/04/11 04:06:32;;;;;;;;;;;;;;;9.36;46.27;101804.28;1713856;84;20274;-65
2021/04/11 04:09:06;;;;;;;;;;;;;;;9.43;45.88;101802.98;1684127;85;20226;-66
2021/04/11 04:12:04;;;;;;;;;;;;;;;9.43;45.84;101795.63;1714840;84;20283;-66
2021/04/11 04:15:14;;;;;;;;;;;;;;;9.39;45.89;101800.18;1684092;85;20235;-64
2021/04/11 04:18:12;;;;;;;;;;;;;;;9.34;45.89;101813.14;1713692;84;20318;-65
2021/04/11 04:20:50;;;;;;;;;;;;;;;9.30;45.73;101812.49;1685482;85;20210;-65
2021/04/11 04:23:45;;;;;;;;;;;;;;;9.35;45.57;101820.91;1684097;85;20222;-65
2021/04/11 04:26:34;;;;;;;;;;;;;;;9.47;45.50;101821.95;1715031;84;20228;-66
2021/04/11 04:29:31;;;;;;;;;;;;;;;9.64;45.25;101823.09;1718169;83;20192;-64
2021/04/11 04:32:28;;;;;;;;;;;;;;;9.79;45.00;101826.56;1717995;83;20227;-64
2021/04/11 04:35:17;;;;;;;;;;;;;;;9.91;44.58;101826.64;1718108;83;20263;-63
2021/04/11 04:37:59;;;;;;;;;;;;;;;9.98;44.49;101822.71;1718454;83;20633;-63
2021/04/11 04:41:01;;;;;;;;;;;;;;;10.01;44.42;101823.84;1687668;84;20192;-65
2021/04/11 04:43:43;;;;;;;;;;;;;;;10.02;44.42;101826.84;1716495;83;20232;-64
2021/04/11 04:46:37;;;;;;;;;;;;;;;10.08;44.36;101832.14;1717907;83;20299;-65
2021/04/11 04:49:12;;;;;;;;;;;;;;;10.09;44.22;101833.37;1717468;83;20197;-65
2021/04/11 04:51:47;;;;;;;;;;;;;;;10.06;44.21;101840.56;1718135;83;20236;-64
2021/04/11 04:54:25;;;;;;;;;;;;;;;10.09;44.19;101839.92;1717545;83;20187;-64
2021/04/11 04:57:11;;;;;;;;;;;;;;;10.13;44.16;101845.82;1691386;83;20184;-65
2021/04/11 04:59:56;;;;;;;;;;;;;;;10.30;43.99;101828.61;1711773;83;20232;-65
2021/04/11 05:02:32;;;;;;;;;;;;;;;10.61;43.63;101837.52;1715954;83;20356;-65
2021/04/11 05:05:07;;;;;;;;;;;;;;;11.04;42.68;101842.12;1675916;86;20231;-67
2021/04/11 05:07:50;;;;;;;;;;;;;;;11.39;41.89;101852.92;1703493;84;20236;-69
2021/04/11 05:10:24;;;;;;;;;;;;;;;11.91;41.54;101852.40;1676234;84;20258;-68
2021/04/11 05:13:04;;;;;;;;;;;;;;;12.98;40.04;101848.20;1701085;84;20232;-70
2021/04/11 05:15:40;;;;;;;;;;;;;;;14.21;37.97;101848.34;1703883;84;20236;-71
2021/04/11 05:18:29;;;;;;;;;;;;;;;15.32;35.91;101846.27;1676881;84;20231;-69
2021/04/11 05:21:25;;;;;;;;;;;;;;;16.23;34.05;101840.23;1686230;85;20187;-70
2021/04/11 05:24:00;;;;;;;;;;;;;;;16.96;32.15;101839.34;1686674;85;20182;-69
2021/04/11 05:26:44;;;;;;;;;;;;;;;17.36;31.06;101845.83;1677116;85;20234;-69
2021/04/11 05:29:33;;;;;;;;;;;;;;;17.77;30.42;101845.47;1686338;85;20247;-71
2021/04/11 05:32:05;;;;;;;;;;;;;;;18.06;29.24;101848.86;1687350;85;20282;-67
2021/04/11 05:34:37;;;;;;;;;;;;;;;18.45;28.24;101857.95;1686044;85;20254;-70
2021/04/11 05:37:16;;;;;;;;;;;;;;;18.82;27.66;101850.27;1687503;85;20179;-69
2021/04/11 05:39:58;;;;;;;;;;;;;;;18.81;27.27;101849.10;1704937;84;20173;-70
2021/04/11 05:42:33;;;;;;;;;;;;;;;18.34;27.46;101850.20;1676943;86;20263;-70
2021/04/11 05:45:29;;;;;;;;;;;;;;;17.82;27.92;101848.52;1687029;85;20230;-70
2021/04/11 05:48:08;;;;;;;;;;;;;;;17.20;27.73;101841.09;1687513;85;20266;-70
2021/04/11 05:51:00;;;;;;;;;;;;;;;16.38;27.49;101848.14;1686863;85;20216;-68
2021/04/11 05:53:51;;;;;;;;;;;;;;;15.87;28.17;101849.54;1687056;85;20568;-71
2021/04/11 05:56:27;;;;;;;;;;;;;;;15.50;28.89;101847.37;1686417;85;20769;-69
2021/04/11 05:59:02;;;;;;;;;;;;;;;15.08;29.19;101846.97;1686577;85;20175;-68
2021/04/11 06:01:36;;;;;;;;;;;;;;;14.83;29.62;101846.00;1687619;85;20636;-68
2021/04/11 06:04:20;;;;;;;;;;;;;;;14.62;30.10;101845.92;1680542;83;20235;-70
2021/04/11 06:07:02;;;;;;;;;;;;;;;14.54;30.54;101848.83;1656618;85;20179;-69
2021/04/11 06:09:39;;;;;;;;;;;;;;;14.43;30.57;101856.27;1705281;84;20188;-70
2021/04/11 06:12:27;;;;;;;;;;;;;;;14.35;31.01;101853.89;1671918;86;20231;-70
2021/04/11 06:15:18;;;;;;;;;;;;;;;14.37;31.04;101855.45;1699262;84;20556;-69
2021/04/11 06:17:49;;;;;;;;;;;;;;;14.41;30.74;101854.23;1705423;84;20605;-71
2021/04/11 06:20:22;;;;;;;;;;;;;;;14.34;30.41;101857.00;1704667;84;20638;-67
2021/04/11 06:23:09;;;;;;;;;;;;;;;14.22;30.44;101857.09;1705100;84;20196;-69
2021/04/11 06:25:50;;;;;;;;;;;;;;;14.03;30.38;101851.95;1686843;84;20204;-69
2021/04/11 06:28:44;;;;;;;;;;;;;;;13.85;30.61;101855.18;1705294;84;20196;-68
2021/04/11 06:31:19;;;;;;;;;;;;;;;13.72;30.82;101850.02;1704548;84;20196;-69
2021/04/11 06:33:53;;;;;;;;;;;;;;;13.47;30.90;101847.55;1704388;84;20232;-69
2021/04/11 06:36:26;;;;;;;;;;;;;;;13.08;30.80;101837.41;1670734;86;20822;-68
2021/04/11 06:39:20;;;;;;;;;;;;;;;12.70;31.48;101833.16;1700055;84;20236;-67
2021/04/11 06:41:59;;;;;;;;;;;;;;;12.52;32.33;101841.03;1669180;86;20610;-69
2021/04/11 06:45:04;;;;;;;;;;;;;;;12.40;33.14;101847.63;1699185;84;20236;-67
2021/04/11 06:48:13;;;;;;;;;;;;;;;12.27;33.01;101842.42;1670430;86;20194;-69
2021/04/11 06:51:00;;;;;;;;;;;;;;;12.07;32.68;101842.51;1699562;84;20169;-67
2021/04/11 06:54:08;;;;;;;;;;;;;;;11.86;32.87;101832.66;1669019;85;20298;-69
2021/04/11 06:57:12;;;;;;;;;;;;;;;11.73;33.27;101838.37;1685206;85;20204;-65
2021/04/11 07:00:00;;;;;;;;;;;;;;;11.58;32.82;101830.22;1679752;85;20298;-66
2021/04/11 07:02:50;;;;;;;;;;;;;;;11.44;33.41;101835.06;1665120;85;20629;-64
2021/04/11 07:05:41;;;;;;;;;;;;;;;11.35;33.90;101837.84;1672038;84;20182;-65
2021/04/11 07:08:22;;;;;;;;;;;;;;;11.30;33.83;101837.31;1678678;85;20257;-66
2021/04/11 07:11:31;;;;;;;;;;;;;;;11.23;33.88;101842.59;1649749;86;20251;-64
2021/04/11 07:14:33;;;;;;;;;;;;;;;11.19;33.84;101838.51;1654716;84;20282;-66
2021/04/11 07:17:16;;;;;;;;;;;;;;;11.15;34.09;101840.13;1663285;86;20176;-65
2021/04/11 07:19:58;;;;;;;;;;;;;;;11.12;34.19;101839.85;1618039;86;20238;-65
2021/04/11 07:22:45;;;;;;;;;;;;;;;11.10;34.25;101843.05;1660779;86;20226;-71
2021/04/11 07:25:30;;;;;;;;;;;;;;;11.11;34.36;101835.54;1661107;86;20315;-68
2021/04/11 07:28:33;;;;;;;;;;;;;;;11.16;34.66;101840.02;1662623;86;20211;-66
2021/04/11 07:31:27;;;;;;;;;;;;;;;11.22;35.42;101834.38;1661280;85;20214;-67
2021/04/11 07:34:19;;;;;;;;;;;;;;;11.26;35.62;101829.29;1661949;86;20225;-67
2021/04/11 07:37:18;;;;;;;;;;;;;;;11.29;35.12;101825.16;1661502;86;20199;-66
2021/04/11 07:40:00;;;;;;;;;;;;;;;11.31;34.98;101819.80;1660965;86;20214;-66
2021/04/11 07:42:55;;;;;;;;;;;;;;;11.30;35.03;101822.89;1661703;86;20210;-65
2021/04/11 07:45:42;;;;;;;;;;;;;;;11.29;35.19;101818.61;1632631;86;20226;-64
2021/04/11 07:48:51;;;;;;;;;;;;;;;11.25;35.24;101809.25;1660814;86;20361;-65
2021/04/11 07:51:45;;;;;;;;;;;;;;;11.21;35.42;101818.27;1661008;86;20215;-65
2021/04/11 07:54:36;;;;;;;;;;;;;;;11.18;34.94;101817.62;1663030;84;20211;-64
2021/04/11 07:57:31;;;;;;;;;;;;;;;11.17;35.10;101811.56;1666038;86;20286;-64
2021/04/11 08:00:31;;;;;;;;;;;;;;;11.15;36.37;101808.67;1665090;86;20358;-65
2021/04/11 08:03:24;;;;;;;;;;;;;;;11.07;37.13;101805.70;1662909;86;20314;-63
2021/04/11 08:06:09;;;;;;;;;;;;;;;10.95;39.12;101808.67;1665369;86;20207;-63
2021/04/11 08:09:03;;;;;;;;;;;;;;;10.86;40.42;101811.90;1666386;86;20231;-63
2021/04/11 08:11:55;;;;;;;;;;;;;;;10.76;41.93;101806.42;1673717;85;20206;-65
2021/04/11 08:14:33;;;;;;;;;;;;;;;10.65;42.14;101811.48;1676767;85;20210;-64
2021/04/11 08:17:33;;;;;;;;;;;;;;;10.61;43.00;101804.78;1676459;85;20253;-65
2021/04/11 08:20:15;;;;;;;;;;;;;;;10.61;44.86;101793.45;1675398;84;20206;-67
2021/04/11 08:22:50;;;;;;;;;;;;;;;10.58;45.62;101774.85;1683359;84;20275;-65
2021/04/11 08:25:37;;;;;;;;;;;;;;;10.57;46.40;101778.89;1682218;84;20303;-65
2021/04/11 08:28:37;;;;;;;;;;;;;;;10.55;47.75;101780.77;1701640;84;20264;-66
2021/04/11 08:31:18;;;;;;;;;;;;;;;10.54;48.36;101782.55;1671359;86;20276;-67
2021/04/11 08:34:05;;;;;;;;;;;;;;;10.54;48.17;101771.22;1663686;84;20218;-64
2021/04/11 08:36:59;;;;;;;;;;;;;;;10.58;47.87;101759.63;1675732;85;20209;-65
2021/04/11 08:39:40;;;;;;;;;;;;;;;10.63;48.08;101762.30;1676261;85;20727;-65
2021/04/11 08:42:28;;;;;;;;;;;;;;;10.70;47.78;101758.34;1692514;84;20662;-67
2021/04/11 08:45:18;;;;;;;;;;;;;;;10.77;48.20;101750.45;1675111;85;20384;-66
2021/04/11 08:48:19;;;;;;;;;;;;;;;10.84;47.72;101749.59;1681601;85;20400;-68
2021/04/11 08:50:58;;;;;;;;;;;;;;;10.91;47.54;101744.32;1680404;84;20286;-69
2021/04/11 08:53:43;;;;;;;;;;;;;;;10.95;46.06;101736.61;1675872;85;20367;-68
2021/04/11 08:56:21;;;;;;;;;;;;;;;11.00;45.64;101733.68;1675702;85;20218;-66
2021/04/11 08:59:08;;;;;;;;;;;;;;;11.05;45.37;101736.83;1655515;86;20693;-65
2021/04/11 09:02:04;;;;;;;;;;;;;;;11.11;45.44;101735.09;1655728;86;20395;-65
2021/04/11 09:04:58;;;;;;;;;;;;;;;11.14;44.64;101730.97;1601959;89;20218;-65
2021/04/11 09:07:50;;;;;;;;;;;;;;;11.18;44.08;101721.48;1601651;89;20367;-68
2021/04/11 09:10:31;;;;;;;;;;;;;;;11.23;43.72;101719.38;1637961;86;20341;-67
2021/04/11 09:13:15;;;;;;;;;;;;;;;11.26;43.38;101711.78;1671580;85;20210;-66
2021/04/11 09:15:50;;;;;;;;;;;;;;;11.25;42.68;101715.33;1679182;85;20333;-66
2021/04/11 09:18:25;;;;;;;;;;;;;;;11.24;42.28;101715.83;1680376;85;20289;-67
2021/04/11 09:21:31;;;;;;;;;;;;;;;11.19;43.11;101706.59;1681932;85;20277;-68
2021/04/11 09:24:15;;;;;;;;;;;;;;;11.13;43.50;101708.34;1592942;89;20563;-66
2021/04/11 09:26:58;;;;;;;;;;;;;;;11.05;43.98;101703.61;1593630;90;20409;-66
2021/04/11 09:29:57;;;;;;;;;;;;;;;10.99;45.11;101714.48;1641948;85;20333;-65
2021/04/11 09:32:52;;;;;;;;;;;;;;;10.99;44.97;101707.94;1681464;85;20735;-69
2021/04/11 09:35:28;;;;;;;;;;;;;;;10.98;44.50;101702.34;1680330;85;20348;-68
2021/04/11 09:38:09;;;;;;;;;;;;;;;11.02;44.88;101711.67;1687343;85;20269;-67
2021/04/11 09:40:59;;;;;;;;;;;;;;;11.11;44.81;101713.66;1688820;85;20202;-65
2021/04/11 09:44:04;;;;;;;;;;;;;;;11.25;44.94;101721.89;1688037;85;20229;-69
2021/04/11 09:47:13;;;;;;;;;;;;;;;11.45;45.54;101714.34;1687316;85;20229;-64
2021/04/11 09:49:51;;;;;;;;;;;;;;;11.80;45.86;101691.37;1680257;85;20310;-68
2021/04/11 09:52:51;;;;;;;;;;;;;;;12.21;45.41;101687.09;1681767;85;20342;-68
2021/04/11 09:55:28;;;;;;;;;;;;;;;12.55;45.27;101695.02;1591318;89;20372;-65
2021/04/11 09:58:27;;;;;;;;;;;;;;;12.89;44.96;101684.13;1660048;85;20421;-66
2021/04/11 10:01:14;;;;;;;;;;;;;;;13.13;44.03;101688.88;1681464;85;20301;-68
2021/04/11 10:04:18;;;;;;;;;;;;;;;13.39;42.84;101682.44;1681162;85;20390;-67
2021/04/11 10:07:09;;;;;;;;;;;;;;;13.50;42.24;101681.11;1680041;85;20390;-66
2021/04/11 10:09:46;;;;;;;;;;;;;;;13.52;41.65;101674.91;1680626;85;20281;-66
2021/04/11 10:12:33;;;;;;;;;;;;;;;13.48;40.26;101671.66;1675081;85;20322;-67
2021/04/11 10:15:37;;;;;;;;;;;;;;;13.40;39.83;101667.46;1664652;86;20303;-67
2021/04/11 10:18:32;;;;;;;;;;;;;;;13.31;39.03;101682.66;1664397;86;20417;-65
2021/04/11 10:21:34;;;;;;;;;;;;;;;13.19;39.54;101662.09;1666051;86;20206;-65
2021/04/11 10:24:31;;;;;;;;;;;;;;;13.07;39.03;101672.23;1632745;86;20238;-67
2021/04/11 10:27:06;;;;;;;;;;;;;;;12.95;39.91;101672.30;1664390;86;20382;-67
2021/04/11 10:29:39;;;;;;;;;;;;;;;12.81;40.01;101668.09;1665764;86;20234;-67
2021/04/11 10:32:47;;;;;;;;;;;;;;;12.72;40.18;101666.17;1639532;86;20637;-67
2021/04/11 10:35:35;;;;;;;;;;;;;;;12.59;40.69;101659.67;1665390;86;20355;-64
2021/04/11 10:38:15;;;;;;;;;;;;;;;12.48;41.86;101655.71;1664862;86;20282;-63
2021/04/11 10:40:50;;;;;;;;;;;;;;;12.40;42.59;101650.65;1664620;86;20262;-65
2021/04/11 10:43:31;;;;;;;;;;;;;;;12.30;42.14;101635.23;1666089;86;20277;-65
2021/04/11 10:46:14;;;;;;;;;;;;;;;12.23;42.10;101637.45;1666154;86;20777;-64
2021/04/11 10:49:08;;;;;;;;;;;;;;;12.21;41.57;101643.30;1665943;86;20429;-66
2021/04/11 10:51:53;;;;;;;;;;;;;;;12.22;40.82;101641.52;1665092;86;20215;-65
2021/04/11 10:54:42;;;;;;;;;;;;;;;12.24;40.61;101637.83;1665669;86;20215;-67
2021/04/11 10:57:34;;;;;;;;;;;;;;;12.31;41.05;101629.02;1630711;86;20210;-66
2021/04/11 11:00:21;;;;;;;;;;;;;;;12.42;40.19;101613.31;1665732;86;20385;-65
2021/04/11 11:03:27;;;;;;;;;;;;;;;12.54;39.62;101610.58;1666182;86;20278;-65
2021/04/11 11:06:24;;;;;;;;;;;;;;;12.70;38.34;101605.86;1664804;86;20792;-66
2021/04/11 11:09:18;;;;;;;;;;;;;;;12.90;37.45;101596.42;1664017;86;20281;-64
2021/04/11 11:12:08;;;;;;;;;;;;;;;13.11;36.95;101596.61;1659979;85;20221;-66
2021/04/11 11:15:04;;;;;;;;;;;;;;;13.32;36.44;101606.75;1660732;86;20331;-66
2021/04/11 11:17:56;;;;;;;;;;;;;;;13.50;35.99;101600.02;1663062;86;20174;-64
2021/04/11 11:20:43;;;;;;;;;;;;;;;13.69;35.88;101591.01;1661869;86;20364;-68
2021/04/11 11:23:36;;;;;;;;;;;;;;;13.84;34.57;101595.52;1663073;86;20229;-67
2021/04/11 11:26:17;;;;;;;;;;;;;;;13.96;34.42;101586.15;1659542;86;20245;-64
2021/04/11 11:29:04;;;;;;;;;;;;;;;14.17;34.98;101580.42;1650612;85;20627;-61
2021/04/11 11:32:02;;;;;;;;;;;;;;;14.41;34.33;101589.44;1662644;86;20851;-63
2021/04/11 11:34:55;;;;;;;;;;;;;;;14.66;35.09;101586.39;1664857;86;20273;-62
2021/04/11 11:37:39;;;;;;;;;;;;;;;14.89;34.39;101571.26;1664831;86;20277;-61
2021/04/11 11:40:26;;;;;;;;;;;;;;;15.03;34.05;101564.78;1664488;86;20291;-64
2021/04/11 11:43:07;;;;;;;;;;;;;;;15.08;33.96;101572.66;1665440;86;20552;-61
2021/04/11 11:46:02;;;;;;;;;;;;;;;15.12;33.70;101559.55;1664640;86;20552;-62
2021/04/11 11:48:58;;;;;;;;;;;;;;;15.21;31.86;101552.65;1663840;86;20238;-60
2021/04/11 11:51:42;;;;;;;;;;;;;;;15.30;31.14;101561.91;1664985;86;20238;-61
2021/04/11 11:54:37;;;;;;;;;;;;;;;15.38;31.57;101558.61;1664881;86;20279;-60
2021/04/11 11:57:13;;;;;;;;;;;;;;;15.47;30.68;101554.70;1665161;86;20175;-63
2021/04/11 12:00:00;;;;;;;;;;;;;;;15.59;29.80;101551.93;1654133;86;20206;-63
2021/04/11 12:03:11;;;;;;;;;;;;;;;15.64;29.47;101569.52;1637425;87;20349;-62
2021/04/11 12:05:46;;;;;;;;;;;;;;;15.64;29.33;101562.44;1625997;87;20282;-63
2021/04/11 12:08:53;;;;;;;;;;;;;;;15.60;29.96;101570.26;1646923;87;20233;-64
2021/04/11 12:11:55;;;;;;;;;;;;;;;15.56;29.74;101573.31;1626242;87;20292;-65
2021/04/11 12:14:48;;;;;;;;;;;;;;;15.57;29.18;101574.99;1649492;86;20271;-66
2021/04/11 12:17:44;;;;;;;;;;;;;;;15.63;29.03;101565.19;1662177;86;20457;-66
2021/04/11 12:20:25;;;;;;;;;;;;;;;15.66;28.48;101560.97;1666499;86;20645;-66
2021/04/11 12:23:07;;;;;;;;;;;;;;;15.67;28.63;101550.26;1673034;83;20827;-68
2021/04/11 12:25:39;;;;;;;;;;;;;;;15.66;28.79;101545.97;1724489;83;20857;-68
2021/04/11 12:28:15;;;;;;;;;;;;;;;15.68;28.52;101539.22;1724652;83;20306;-70
2021/04/11 12:30:47;;;;;;;;;;;;;;;15.68;27.67;101551.94;1725125;83;20327;-68
2021/04/11 12:33:34;;;;;;;;;;;;;;;15.63;28.28;101551.99;1725447;83;20684;-66
2021/04/11 12:36:26;;;;;;;;;;;;;;;15.58;28.71;101552.89;1662674;86;20387;-68
2021/04/11 12:39:17;;;;;;;;;;;;;;;15.57;28.33;101547.28;1662308;86;20750;-68
2021/04/11 12:42:09;;;;;;;;;;;;;;;15.54;28.23;101535.66;1661362;86;20678;-67
2021/04/11 12:44:47;;;;;;;;;;;;;;;15.52;29.01;101538.45;1691787;83;20210;-69
2021/04/11 12:47:23;;;;;;;;;;;;;;;15.55;28.25;101525.47;1686318;85;20282;-68
2021/04/11 12:50:02;;;;;;;;;;;;;;;15.57;28.32;101523.52;1687009;83;20289;-68
2021/04/11 12:52:49;;;;;;;;;;;;;;;15.58;28.66;101515.93;1686210;85;20666;-68
2021/04/11 12:55:40;;;;;;;;;;;;;;;15.57;28.47;101513.77;1686035;85;20223;-67
2021/04/11 12:58:27;;;;;;;;;;;;;;;15.55;28.29;101510.44;1680134;85;20342;-67
2021/04/11 13:01:18;;;;;;;;;;;;;;;15.52;28.17;101501.98;1688112;85;20281;-66
2021/04/11 13:04:02;;;;;;;;;;;;;;;15.50;28.41;101513.98;1742375;80;20280;-66
2021/04/11 13:06:51;;;;;;;;;;;;;;;15.47;28.77;101514.27;1757182;80;20214;-67
2021/04/11 13:09:55;;;;;;;;;;;;;;;15.42;28.34;101512.02;1779584;80;20377;-67
2021/04/11 13:12:33;;;;;;;;;;;;;;;15.37;28.30;101500.19;1743171;80;20317;-66
2021/04/11 13:15:22;;;;;;;;;;;;;;;15.27;28.15;101497.53;1743327;82;20387;-66
2021/04/11 13:18:12;;;;;;;;;;;;;;;15.17;28.14;101496.67;1741069;82;20229;-64
2021/04/11 13:21:04;;;;;;;;;;;;;;;15.07;28.49;101502.41;1743352;82;20317;-66
2021/04/11 13:23:52;;;;;;;;;;;;;;;14.98;28.85;101495.30;1743270;82;20292;-66
2021/04/11 13:26:57;;;;;;;;;;;;;;;14.93;29.23;101503.25;1725190;82;20226;-65
2021/04/11 13:30:08;;;;;;;;;;;;;;;14.85;29.22;101506.08;1742352;82;20317;-66
2021/04/11 13:33:04;;;;;;;;;;;;;;;14.79;29.42;101497.40;1715531;82;20209;-64
2021/04/11 13:35:45;;;;;;;;;;;;;;;14.75;29.55;101497.32;1714355;82;20268;-65
2021/04/11 13:38:25;;;;;;;;;;;;;;;14.74;29.50;101506.66;1741970;82;20800;-67
2021/04/11 13:41:07;;;;;;;;;;;;;;;14.68;30.07;101510.68;1743134;82;20314;-66
2021/04/11 13:44:09;;;;;;;;;;;;;;;14.63;30.12;101523.42;1715305;82;20735;-64
2021/04/11 13:46:49;;;;;;;;;;;;;;;14.59;30.31;101532.53;1742723;82;20660;-66
2021/04/11 13:49:28;;;;;;;;;;;;;;;14.56;30.17;101543.36;1745060;82;20149;-65
2021/04/11 13:52:08;;;;;;;;;;;;;;;14.54;30.41;101545.30;1742750;82;20280;-66
2021/04/11 13:54:47;;;;;;;;;;;;;;;14.52;30.51;101558.24;1745163;82;20361;-64
2021/04/11 13:57:47;;;;;;;;;;;;;;;14.50;30.45;101565.41;1743575;82;20233;-67
2021/04/11 14:00:41;;;;;;;;;;;;;;;14.47;30.36;101568.33;1742218;82;20715;-65
2021/04/11 14:03:28;;;;;;;;;;;;;;;14.45;30.49;101566.31;1743678;82;20270;-65
2021/04/11 14:06:04;;;;;;;;;;;;;;;14.44;31.08;101560.20;1744819;82;20229;-64